Decoded Metar for LFRZ (ST.-NAZAIRE in FRANCE) (IATA:SNR) | Meteo·Mobile Aviation Weather
aviador You're here:

LFRZ Decoded Metar

ST.-NAZAIRE in FRANCE
Report Time2019-10-21 07:00:00
UTC Time2019-10-21 07:32:25
Flight Rules vfr VFR
Wind360° at 03 kt
W.Decomp.*RWY 08: 0.6 kt HW 2.9 kt LCW
Visibility9000 m
Phenomena:N/A
Clouds:N/A
CeilingNone
Temp05°C (ISA -10)
Dew Point05°C (100% RH)
AAT2.8°C
QNH1017 hPa
Density Alt-1,211 ft
Elevation13 ft
Report Wrong Elevation
Raw Report
METAR LFRZ 210700Z AUTO 36003KT 9000 ////// 05/05 Q1017=

Extra information for LFRZ:More info

Metar Taf Metar & Taf Last 4 Metars F.Rules Stats Wind Profile Meteogram Temp Stats Airport Information Weather charts Add Link Nearby VenuesMetar ALERT Operation Metar Decoded Social comments